createdAt,value
2018-03-23T00:00:37.493Z,88.83
2018-03-23T00:03:05.151Z,88.98
2018-03-23T00:05:32.743Z,89.28
2018-03-23T00:08:00.326Z,89.04
2018-03-23T00:10:27.946Z,88.61
2018-03-23T00:12:55.531Z,88.62
2018-03-23T00:15:23.155Z,88.42
2018-03-23T00:17:50.789Z,88.35
2018-03-23T00:20:18.379Z,88.46
2018-03-23T00:22:45.983Z,88.43
2018-03-23T00:25:13.655Z,87.81
2018-03-23T00:27:42.087Z,88.52
2018-03-23T00:30:09.675Z,88.24
2018-03-23T00:32:38.215Z,87.63
2018-03-23T00:35:05.803Z,87.56
2018-03-23T00:37:33.390Z,87.81
2018-03-23T00:40:01.059Z,87.30
2018-03-23T00:42:28.650Z,86.63
2018-03-23T00:44:56.263Z,86.78
2018-03-23T00:47:23.898Z,85.79
2018-03-23T00:49:51.510Z,85.35
2018-03-23T00:52:19.138Z,86.29
2018-03-23T00:54:46.739Z,85.93
2018-03-23T00:57:14.355Z,85.70
2018-03-23T00:59:41.942Z,85.08
2018-03-23T01:02:09.557Z,86.38
2018-03-23T01:04:37.215Z,86.93
2018-03-23T01:07:04.803Z,86.44
2018-03-23T01:09:32.390Z,86.38
2018-03-23T01:11:59.970Z,86.28
2018-03-23T01:14:27.565Z,85.81
2018-03-23T01:16:55.167Z,85.97
2018-03-23T01:19:22.783Z,86.51
2018-03-23T01:21:50.370Z,87.35
2018-03-23T01:24:17.974Z,87.24
2018-03-23T01:26:45.619Z,87.78
2018-03-23T01:29:13.210Z,88.42
2018-03-23T01:31:40.831Z,87.60
2018-03-23T01:34:08.462Z,87.56
2018-03-23T01:36:36.120Z,88.08
2018-03-23T01:39:03.718Z,88.71
2018-03-23T01:41:31.455Z,89.16
2018-03-23T01:43:59.035Z,89.19
2018-03-23T01:46:26.630Z,89.06
2018-03-23T01:48:54.254Z,89.18
2018-03-23T01:51:21.831Z,89.80
2018-03-23T01:53:49.418Z,90.09
2018-03-23T01:56:17.003Z,90.18
2018-03-23T01:58:44.598Z,89.90
2018-03-23T02:01:12.190Z,89.69
2018-03-23T02:03:39.788Z,89.46
2018-03-23T02:06:07.451Z,89.69
2018-03-23T02:08:35.028Z,89.59
2018-03-23T02:11:02.603Z,88.61
2018-03-23T02:13:30.183Z,88.02
2018-03-23T02:15:57.794Z,87.03
2018-03-23T02:18:25.375Z,86.84
2018-03-23T02:20:52.983Z,86.51
2018-03-23T02:23:20.654Z,86.93
2018-03-23T02:25:48.230Z,87.36
2018-03-23T02:28:15.828Z,85.99
2018-03-23T02:30:43.515Z,86.82
2018-03-23T02:33:11.103Z,86.61
2018-03-23T02:35:39.010Z,86.77
2018-03-23T02:38:06.603Z,87.08
2018-03-23T02:40:34.194Z,87.48
2018-03-23T02:43:01.796Z,87.40
2018-03-23T02:45:29.416Z,87.89
2018-03-23T02:47:57.010Z,86.94
2018-03-23T02:50:24.598Z,87.71
2018-03-23T02:52:52.223Z,88.23
2018-03-23T02:55:19.847Z,88.84
2018-03-23T02:57:47.455Z,88.44
2018-03-23T03:00:15.102Z,88.33
2018-03-23T03:02:42.692Z,88.55
2018-03-23T03:05:10.295Z,88.75
2018-03-23T03:07:37.879Z,88.58
2018-03-23T03:10:05.491Z,86.88
2018-03-23T03:12:33.071Z,86.33
2018-03-23T03:15:00.698Z,85.74
2018-03-23T03:17:28.323Z,86.16
2018-03-23T03:19:55.946Z,85.57
2018-03-23T03:22:23.550Z,86.47
2018-03-23T03:24:51.186Z,87.45
2018-03-23T03:27:18.773Z,87.38
2018-03-23T03:29:46.363Z,87.02
2018-03-23T03:32:14.039Z,87.42
2018-03-23T03:34:41.679Z,87.85
2018-03-23T03:37:09.298Z,87.88
2018-03-23T03:39:36.935Z,87.14
2018-03-23T03:42:04.551Z,87.58
2018-03-23T03:44:32.155Z,87.87
2018-03-23T03:46:59.755Z,88.47
2018-03-23T03:49:28.224Z,89.16
2018-03-23T03:51:55.822Z,89.30
2018-03-23T03:54:23.399Z,88.94
2018-03-23T03:56:51.003Z,88.90
2018-03-23T03:59:18.590Z,88.89
2018-03-23T04:01:46.183Z,89.38
2018-03-23T04:04:13.767Z,89.26
2018-03-23T04:06:41.391Z,89.05
2018-03-23T04:09:08.974Z,87.95
2018-03-23T04:11:36.563Z,87.81
2018-03-23T04:14:04.210Z,88.68
2018-03-23T04:16:31.826Z,89.08
2018-03-23T04:18:59.414Z,89.19
2018-03-23T04:21:27.043Z,89.12
2018-03-23T04:23:54.644Z,87.90
2018-03-23T04:26:22.275Z,87.97
2018-03-23T04:28:49.879Z,88.31
2018-03-23T04:31:17.472Z,87.99
2018-03-23T04:33:45.106Z,87.75
2018-03-23T04:36:12.687Z,86.86
2018-03-23T04:38:40.279Z,86.87
2018-03-23T04:41:07.870Z,86.85
2018-03-23T04:43:35.474Z,87.09
2018-03-23T04:46:03.071Z,87.49
2018-03-23T04:48:30.717Z,87.19
2018-03-23T04:50:58.420Z,86.71
2018-03-23T04:53:26.010Z,87.43
2018-03-23T04:55:53.619Z,88.17
2018-03-23T04:58:21.249Z,87.62
2018-03-23T05:00:48.866Z,87.85
2018-03-23T05:03:16.463Z,87.85
2018-03-23T05:05:44.060Z,87.47
2018-03-23T05:08:11.646Z,86.90
2018-03-23T05:10:39.266Z,87.24
2018-03-23T05:13:06.863Z,87.21
2018-03-23T05:15:34.455Z,86.95
2018-03-23T05:18:02.054Z,85.93
2018-03-23T05:20:29.647Z,85.54
2018-03-23T05:22:57.239Z,84.95
2018-03-23T05:25:24.882Z,85.35
2018-03-23T05:27:52.507Z,85.88
2018-03-23T05:30:20.131Z,86.42
2018-03-23T05:32:47.763Z,86.73
2018-03-23T05:35:15.354Z,85.86
2018-03-23T05:37:42.950Z,85.57
2018-03-23T05:40:10.574Z,85.25
2018-03-23T05:42:38.179Z,84.66
2018-03-23T05:45:05.767Z,84.74
2018-03-23T05:47:33.362Z,85.21
2018-03-23T05:50:01.027Z,84.95
2018-03-23T05:52:28.638Z,85.23
2018-03-23T05:54:56.235Z,85.07
2018-03-23T05:57:23.846Z,84.69
2018-03-23T05:59:51.525Z,84.47
2018-03-23T06:02:19.338Z,83.65
2018-03-23T06:04:47.170Z,82.98
2018-03-23T06:07:14.767Z,83.46
2018-03-23T06:09:42.459Z,84.17
2018-03-23T06:12:10.117Z,85.12
2018-03-23T06:14:37.747Z,84.06
2018-03-23T06:17:05.429Z,83.98
2018-03-23T06:19:33.096Z,84.22
2018-03-23T06:22:00.695Z,84.40
2018-03-23T06:24:28.298Z,84.68
2018-03-23T06:26:55.912Z,84.67
2018-03-23T06:29:23.514Z,84.93
2018-03-23T06:31:51.167Z,84.99
2018-03-23T06:34:18.767Z,84.44
2018-03-23T06:36:46.630Z,84.47
2018-03-23T06:39:14.270Z,84.66
2018-03-23T06:41:41.891Z,84.28
2018-03-23T06:44:09.491Z,84.01
2018-03-23T06:46:37.137Z,83.87
2018-03-23T06:49:04.791Z,83.02
2018-03-23T06:51:32.411Z,83.04
2018-03-23T06:54:00.063Z,83.43
2018-03-23T06:56:27.819Z,83.01
2018-03-23T06:58:55.436Z,82.05
2018-03-23T07:01:23.175Z,80.69
2018-03-23T07:03:50.867Z,79.62
2018-03-23T07:06:18.587Z,79.06
2018-03-23T07:08:46.242Z,78.11
2018-03-23T07:11:13.892Z,77.56
2018-03-23T07:13:41.520Z,77.88
2018-03-23T07:16:09.135Z,78.46
2018-03-23T07:18:36.842Z,78.23
2018-03-23T07:21:04.474Z,78.25
2018-03-23T07:23:32.100Z,76.19
2018-03-23T07:25:59.728Z,76.46
2018-03-23T07:28:27.347Z,75.67
2018-03-23T07:30:55.043Z,73.81
2018-03-23T07:33:22.639Z,73.68
2018-03-23T07:35:50.254Z,70.35
2018-03-23T07:38:17.854Z,71.87
2018-03-23T07:40:45.468Z,68.00
2018-03-23T07:43:13.111Z,68.46
2018-03-23T07:45:41.282Z,70.15
2018-03-23T07:48:08.871Z,65.96
2018-03-23T07:50:36.486Z,65.47
2018-03-23T07:53:04.064Z,66.74
2018-03-23T07:55:31.644Z,67.41
2018-03-23T07:57:59.223Z,67.35
2018-03-23T08:00:26.814Z,60.56
2018-03-23T08:02:54.509Z,66.20
2018-03-23T08:05:22.197Z,62.07
2018-03-23T08:07:49.827Z,59.79
2018-03-23T08:10:17.407Z,60.04
2018-03-23T08:12:45.054Z,60.41
2018-03-23T08:15:12.766Z,65.01
2018-03-23T08:17:40.399Z,61.69
2018-03-23T08:20:08.027Z,61.14
2018-03-23T08:22:35.629Z,61.52
2018-03-23T08:25:03.251Z,59.75
2018-03-23T08:27:30.879Z,56.99
2018-03-23T08:29:58.461Z,57.43
2018-03-23T08:32:26.045Z,56.04
2018-03-23T08:34:53.627Z,53.16
2018-03-23T08:37:21.291Z,52.63
2018-03-23T08:39:48.868Z,55.42
2018-03-23T08:42:16.462Z,54.70
2018-03-23T08:44:44.074Z,52.93
2018-03-23T08:47:11.654Z,56.71
2018-03-23T08:49:39.378Z,54.15
2018-03-23T08:52:06.951Z,56.97
2018-03-23T08:54:34.535Z,56.55
2018-03-23T08:57:02.147Z,56.26
2018-03-23T08:59:29.769Z,53.12
2018-03-23T09:01:57.398Z,57.04
2018-03-23T09:04:25.022Z,52.40
2018-03-23T09:06:52.644Z,56.99
2018-03-23T09:09:20.234Z,55.12
2018-03-23T09:11:47.862Z,54.71
2018-03-23T09:14:15.447Z,54.16
2018-03-23T09:16:43.097Z,55.52
2018-03-23T09:19:10.684Z,51.64
2018-03-23T09:21:38.286Z,49.79
2018-03-23T09:24:05.909Z,47.70
2018-03-23T09:26:33.527Z,47.68
2018-03-23T09:29:01.107Z,45.96
2018-03-23T09:31:28.728Z,43.92
2018-03-23T09:33:56.322Z,44.61
2018-03-23T09:36:23.900Z,49.58
2018-03-23T09:38:51.493Z,52.26
2018-03-23T09:41:19.099Z,49.86
2018-03-23T09:43:46.695Z,47.50
2018-03-23T09:46:14.284Z,46.47
2018-03-23T09:48:41.969Z,43.67
2018-03-23T09:51:09.530Z,44.88
2018-03-23T09:53:37.111Z,46.43
2018-03-23T09:56:04.735Z,46.28
2018-03-23T09:58:32.311Z,46.86
2018-03-23T10:00:59.891Z,44.49
2018-03-23T10:03:27.483Z,43.32
2018-03-23T10:05:55.086Z,45.03
2018-03-23T10:08:22.721Z,46.04
2018-03-23T10:10:50.314Z,46.49
2018-03-23T10:13:17.920Z,50.05
2018-03-23T10:15:45.554Z,49.43
2018-03-23T10:18:13.146Z,50.39
2018-03-23T10:20:40.779Z,51.14
2018-03-23T10:23:08.378Z,52.86
2018-03-23T10:25:35.978Z,54.82
2018-03-23T10:28:03.559Z,52.80
2018-03-23T10:30:31.181Z,48.65
2018-03-23T10:32:58.771Z,50.92
2018-03-23T10:35:26.353Z,50.25
2018-03-23T10:37:54.010Z,49.63
2018-03-23T10:40:21.608Z,46.80
2018-03-23T10:42:49.247Z,40.84
2018-03-23T10:45:16.895Z,38.02
2018-03-23T10:47:44.491Z,37.62
2018-03-23T10:50:12.087Z,36.46
2018-03-23T10:52:39.762Z,37.90
2018-03-23T10:55:07.392Z,35.42
2018-03-23T10:57:34.981Z,37.43
2018-03-23T11:00:02.623Z,38.37
2018-03-23T11:02:44.851Z,43.50
2018-03-23T11:05:12.467Z,46.13
2018-03-23T11:07:40.055Z,42.67
2018-03-23T11:10:07.638Z,43.01
2018-03-23T11:12:35.256Z,42.49
2018-03-23T11:15:02.836Z,43.62
2018-03-23T11:17:30.451Z,47.46
2018-03-23T11:19:58.117Z,48.89
2018-03-23T11:22:25.704Z,48.72
2018-03-23T11:24:53.287Z,52.06
2018-03-23T11:27:20.915Z,52.46
2018-03-23T11:29:48.496Z,57.48
2018-03-23T11:32:16.158Z,55.91
2018-03-23T11:34:43.739Z,57.68
2018-03-23T11:37:14.491Z,56.54
2018-03-23T11:39:42.171Z,56.00
2018-03-23T11:42:09.757Z,57.62
2018-03-23T11:44:37.335Z,59.29
2018-03-23T11:47:04.947Z,58.70
2018-03-23T11:49:32.546Z,57.43
2018-03-23T11:52:00.131Z,59.17
2018-03-23T11:54:27.734Z,61.03
2018-03-23T11:56:55.311Z,61.94
2018-03-23T11:59:22.890Z,61.41
2018-03-23T12:01:50.491Z,61.11
2018-03-23T12:04:18.229Z,61.97
2018-03-23T12:06:45.811Z,59.94
2018-03-23T12:09:13.429Z,59.74
2018-03-23T12:11:41.027Z,57.59
2018-03-23T12:14:08.607Z,56.96
2018-03-23T12:16:36.257Z,58.20
2018-03-23T12:19:03.850Z,58.33
2018-03-23T12:21:31.440Z,58.18
2018-03-23T12:23:59.086Z,59.18
2018-03-23T12:26:26.702Z,57.23
2018-03-23T12:28:54.343Z,55.83
2018-03-23T12:31:22.011Z,53.44
2018-03-23T12:33:49.656Z,52.52
2018-03-23T12:36:17.247Z,52.68
2018-03-23T12:38:44.935Z,51.68
2018-03-23T12:41:12.658Z,53.38
2018-03-23T12:43:40.258Z,55.68
2018-03-23T12:46:07.944Z,56.34
2018-03-23T12:48:35.580Z,56.23
2018-03-23T12:51:03.256Z,56.94
2018-03-23T12:53:30.908Z,55.76
2018-03-23T12:55:58.484Z,56.03
2018-03-23T12:58:26.073Z,56.64
2018-03-23T13:00:53.655Z,55.24
2018-03-23T13:03:21.293Z,54.42
2018-03-23T13:05:48.943Z,51.26
2018-03-23T13:08:16.531Z,52.42
2018-03-23T13:10:44.127Z,54.54
2018-03-23T13:13:11.755Z,56.65
2018-03-23T13:15:40.234Z,54.49
2018-03-23T13:18:07.853Z,55.84
2018-03-23T13:20:35.463Z,56.18
2018-03-23T13:23:03.150Z,57.88
2018-03-23T13:25:30.776Z,57.72
2018-03-23T13:27:58.419Z,57.23
2018-03-23T13:30:26.008Z,58.39
2018-03-23T13:32:53.707Z,60.32
2018-03-23T13:35:21.976Z,60.00
2018-03-23T13:37:49.568Z,58.34
2018-03-23T13:40:17.199Z,58.05
2018-03-23T13:42:44.787Z,59.73
2018-03-23T13:45:12.503Z,59.37
2018-03-23T13:47:40.088Z,59.33
2018-03-23T13:50:07.766Z,58.42
2018-03-23T13:52:35.340Z,59.10
2018-03-23T13:55:02.956Z,58.62
2018-03-23T13:57:30.571Z,59.09
2018-03-23T13:59:58.958Z,60.12
2018-03-23T14:02:26.540Z,60.92
2018-03-23T14:04:54.128Z,59.11
2018-03-23T14:07:21.804Z,59.34
2018-03-23T14:09:49.378Z,58.17
2018-03-23T14:12:16.975Z,60.62
2018-03-23T14:14:44.734Z,58.52
2018-03-23T14:17:12.367Z,58.16
2018-03-23T14:19:40.089Z,57.15
2018-03-23T14:22:07.677Z,57.40
2018-03-23T14:24:35.279Z,58.54
2018-03-23T14:27:03.013Z,58.75
2018-03-23T14:29:30.654Z,60.10
2018-03-23T14:31:58.328Z,60.45
2018-03-23T14:34:26.070Z,59.60
2018-03-23T14:36:53.704Z,58.32
2018-03-23T14:39:21.327Z,59.89
2018-03-23T14:41:49.041Z,60.43
2018-03-23T14:44:16.740Z,59.61
2018-03-23T14:46:44.388Z,59.33
2018-03-23T14:49:12.080Z,59.99
2018-03-23T14:51:39.708Z,59.66
2018-03-23T14:54:07.359Z,60.46
2018-03-23T14:56:35.005Z,59.43
2018-03-23T14:59:08.231Z,59.28
2018-03-23T15:01:36.001Z,59.80
2018-03-23T15:04:03.710Z,60.13
2018-03-23T15:06:31.352Z,59.65
2018-03-23T15:08:59.024Z,59.66
2018-03-23T15:11:26.736Z,59.57
2018-03-23T15:16:50.220Z,61.05
2018-03-23T15:19:17.887Z,59.96
2018-03-23T15:21:45.689Z,61.01
2018-03-23T15:24:13.500Z,60.69
2018-03-23T15:26:41.731Z,61.52
2018-03-23T15:29:09.333Z,62.04
2018-03-23T15:31:37.001Z,61.83
2018-03-23T15:34:04.711Z,62.07
2018-03-23T15:36:32.505Z,63.39
2018-03-23T15:39:00.143Z,63.13
2018-03-23T15:41:27.799Z,61.44
2018-03-23T15:43:56.231Z,61.98
2018-03-23T15:46:23.831Z,62.05
2018-03-23T15:48:51.526Z,62.75
2018-03-23T15:51:19.195Z,62.50
2018-03-23T15:53:46.916Z,62.25
2018-03-23T16:09:09.745Z,64.69
2018-03-23T16:11:37.449Z,63.75
2018-03-23T16:14:05.160Z,64.26
2018-03-23T16:16:33.024Z,64.28
2018-03-23T16:19:00.741Z,64.10
2018-03-23T16:21:28.460Z,64.72
2018-03-23T16:23:56.173Z,64.83
2018-03-23T16:26:23.934Z,65.41
2018-03-23T16:28:51.596Z,65.36
2018-03-23T16:31:19.301Z,66.91
2018-03-23T16:33:47.061Z,67.16
2018-03-23T16:36:14.745Z,67.99
2018-03-23T16:38:42.495Z,67.53
2018-03-23T16:41:10.181Z,66.84
2018-03-23T16:43:37.897Z,68.66
2018-03-23T16:46:05.516Z,68.72
2018-03-23T16:48:33.162Z,67.23
2018-03-23T16:51:00.805Z,67.87
2018-03-23T16:53:29.380Z,67.96
2018-03-23T16:55:57.023Z,67.82
2018-03-23T16:58:24.668Z,69.23
2018-03-23T17:00:52.376Z,69.84
2018-03-23T17:03:20.016Z,69.35
2018-03-23T17:05:47.656Z,69.17
2018-03-23T17:08:15.306Z,71.08
2018-03-23T17:10:42.914Z,71.61
2018-03-23T17:13:10.498Z,71.05
2018-03-23T17:15:38.179Z,71.42
2018-03-23T17:18:06.705Z,70.90
2018-03-23T17:20:34.432Z,70.93
2018-03-23T17:23:02.064Z,71.73
2018-03-23T17:25:29.998Z,71.24
2018-03-23T17:27:57.685Z,71.99
2018-03-23T17:30:25.403Z,72.01
2018-03-23T17:32:53.072Z,72.72
2018-03-23T17:35:20.804Z,72.29
2018-03-23T17:37:48.551Z,71.77
2018-03-23T17:40:16.228Z,72.31
2018-03-23T17:42:44.077Z,71.88
2018-03-23T17:45:11.771Z,71.96
2018-03-23T17:47:39.490Z,71.78
2018-03-23T17:50:07.190Z,72.57
2018-03-23T17:52:35.270Z,72.58
2018-03-23T17:55:03.434Z,72.05
2018-03-23T17:57:31.214Z,72.00
2018-03-23T17:59:58.930Z,71.07
2018-03-23T18:02:26.651Z,71.60
2018-03-23T18:04:54.500Z,70.16
2018-03-23T18:07:22.242Z,70.76
2018-03-23T18:09:49.905Z,71.67
2018-03-23T18:12:17.588Z,71.69
2018-03-23T18:14:45.593Z,71.07
2018-03-23T18:17:13.283Z,70.50
2018-03-23T18:19:40.951Z,70.49
2018-03-23T18:22:08.644Z,71.29
2018-03-23T18:24:36.383Z,70.97
2018-03-23T18:27:04.089Z,70.28
2018-03-23T18:29:31.779Z,71.69
2018-03-23T18:31:59.622Z,71.91
2018-03-23T18:34:27.231Z,72.84
2018-03-23T18:36:54.864Z,72.51
2018-03-23T18:39:22.558Z,75.00
2018-03-23T18:41:50.195Z,76.00
2018-03-23T18:44:17.787Z,75.30
2018-03-23T18:46:45.593Z,76.55
2018-03-23T18:49:13.315Z,77.12
2018-03-23T18:51:41.011Z,78.23
2018-03-23T18:54:08.662Z,77.47
2018-03-23T18:56:36.264Z,77.12
2018-03-23T18:59:03.966Z,79.26
2018-03-23T19:01:31.608Z,79.70
2018-03-23T19:03:59.218Z,80.30
2018-03-23T19:06:26.839Z,78.64
2018-03-23T19:08:54.464Z,80.20
2018-03-23T19:11:22.057Z,80.77
2018-03-23T19:13:49.769Z,81.16
2018-03-23T19:16:17.358Z,82.48
2018-03-23T19:18:45.003Z,83.00
2018-03-23T19:21:12.611Z,82.87
2018-03-23T19:23:40.225Z,81.67
2018-03-23T19:26:07.858Z,81.95
2018-03-23T19:28:35.475Z,81.77
2018-03-23T19:31:03.116Z,82.02
2018-03-23T19:33:30.760Z,82.84
2018-03-23T19:35:58.455Z,82.80
2018-03-23T19:38:26.092Z,82.04
2018-03-23T19:40:53.740Z,82.75
2018-03-23T19:43:21.756Z,82.70
2018-03-23T19:45:49.396Z,82.61
2018-03-23T19:48:17.063Z,82.33
2018-03-23T19:50:44.723Z,81.43
2018-03-23T19:53:12.381Z,81.30
2018-03-23T19:55:40.125Z,80.37
2018-03-23T19:58:07.804Z,79.50
2018-03-23T20:00:35.511Z,78.91
2018-03-23T20:03:03.119Z,78.15
2018-03-23T20:05:30.706Z,77.23
2018-03-23T20:07:59.068Z,78.01
2018-03-23T20:10:26.659Z,77.16
2018-03-23T20:12:54.265Z,77.77
2018-03-23T20:15:21.855Z,76.88
2018-03-23T20:17:55.028Z,78.07
2018-03-23T20:20:28.315Z,77.04
2018-03-23T20:22:56.001Z,76.97
2018-03-23T20:25:23.782Z,76.97
2018-03-23T20:27:58.234Z,76.15
2018-03-23T20:30:26.915Z,76.98
2018-03-23T20:32:54.687Z,76.63
2018-03-23T20:35:22.583Z,77.56
2018-03-23T20:37:50.304Z,77.32
2018-03-23T20:40:18.045Z,77.45
2018-03-23T20:42:45.756Z,78.06
2018-03-23T20:45:13.425Z,77.98
2018-03-23T20:47:41.076Z,78.05
2018-03-23T20:50:08.854Z,79.18
2018-03-23T20:52:36.622Z,78.68
2018-03-23T20:55:04.296Z,79.60
2018-03-23T20:57:32.332Z,78.96
2018-03-23T20:59:59.994Z,78.95
2018-03-23T21:02:27.697Z,78.86
2018-03-23T21:04:55.389Z,78.71
2018-03-23T21:07:23.075Z,78.33
2018-03-23T21:09:50.756Z,77.92
2018-03-23T21:12:18.404Z,78.63
2018-03-23T21:14:46.189Z,77.29
2018-03-23T21:17:13.840Z,77.48
2018-03-23T21:19:41.500Z,76.65
2018-03-23T21:22:09.311Z,76.90
2018-03-23T21:24:36.975Z,77.83
2018-03-23T21:27:04.593Z,78.38
2018-03-23T21:29:32.219Z,77.93
2018-03-23T21:32:00.084Z,77.59
2018-03-23T21:34:27.749Z,77.64
2018-03-23T21:36:55.388Z,76.70
2018-03-23T21:39:23.034Z,76.61
2018-03-23T21:41:50.714Z,76.43
2018-03-23T21:44:18.352Z,75.20
2018-03-23T21:46:46.022Z,75.04
2018-03-23T21:49:13.717Z,75.83
2018-03-23T21:51:41.460Z,75.99
2018-03-23T21:54:09.116Z,75.31
2018-03-23T21:56:36.795Z,74.70
2018-03-23T21:59:04.482Z,75.31
2018-03-23T22:01:32.297Z,75.10
2018-03-23T22:04:00.039Z,74.63
2018-03-23T22:06:27.668Z,74.68
2018-03-23T22:08:55.291Z,74.85
2018-03-23T22:11:22.964Z,74.68
2018-03-23T22:13:50.603Z,75.79
2018-03-23T22:16:18.291Z,76.43
2018-03-23T22:18:45.923Z,75.74
2018-03-23T22:21:13.686Z,75.87
2018-03-23T22:23:41.388Z,74.55
2018-03-23T22:26:09.103Z,74.70
2018-03-23T22:28:36.783Z,75.13
2018-03-23T22:31:04.444Z,75.95
2018-03-23T22:33:32.152Z,75.67
2018-03-23T22:35:59.876Z,76.71
2018-03-23T22:38:27.551Z,76.48
2018-03-23T22:40:55.200Z,76.97
2018-03-23T22:43:23.097Z,76.37
2018-03-23T22:45:50.919Z,76.86
2018-03-23T22:48:18.673Z,77.15
2018-03-23T22:50:46.350Z,77.54
2018-03-23T22:53:14.016Z,77.25
2018-03-23T22:55:41.736Z,77.73
2018-03-23T22:58:09.452Z,78.44
2018-03-23T23:00:37.156Z,77.75
2018-03-23T23:03:04.824Z,78.35
2018-03-23T23:05:32.602Z,78.34
2018-03-23T23:08:00.291Z,78.13
2018-03-23T23:10:27.955Z,77.23
2018-03-23T23:12:55.657Z,77.47
2018-03-23T23:15:23.375Z,76.77
2018-03-23T23:17:51.075Z,77.16
2018-03-23T23:20:18.815Z,78.07
2018-03-23T23:22:46.480Z,78.56
2018-03-23T23:25:14.092Z,79.43
2018-03-23T23:27:41.762Z,79.52
2018-03-23T23:30:09.368Z,81.21
2018-03-23T23:32:37.003Z,80.45
2018-03-23T23:35:04.626Z,81.24
2018-03-23T23:37:32.215Z,81.04
2018-03-23T23:39:59.839Z,81.58
2018-03-23T23:42:27.443Z,81.46
2018-03-23T23:44:55.067Z,81.24
2018-03-23T23:47:22.788Z,82.37
2018-03-23T23:49:50.390Z,82.55
2018-03-23T23:52:18.034Z,81.09
2018-03-23T23:54:45.699Z,81.94
2018-03-23T23:57:13.287Z,80.49
2018-03-23T23:59:40.870Z,81.97
